Time;durP1;ratioP1;P1;durP2;ratioP2;P2;SDS_P1;SDS_P2;PMS_P1;PMS_P2;Temp;Humidity;BMP_temperature;BMP_pressure;BME280_temperature;BME280_humidity;BME280_pressure;Samples;Min_cycle;Max_cycle;Signal;HPM_P1;HPM_P2
2023/06/29 00:01:32;;;;;;;3.80;1.60;;;;;;;18.01;53.24;99494.78;109054;1237;60545;-85
2023/06/29 00:03:59;;;;;;;4.50;1.40;;;;;;;18.03;53.43;99495.37;108999;1235;62544;-85
2023/06/29 00:06:26;;;;;;;5.20;1.60;;;;;;;18.03;53.52;99494.92;109071;1235;60551;-87
2023/06/29 00:08:53;;;;;;;5.00;1.30;;;;;;;18.03;53.52;99493.23;109085;1234;60654;-90
2023/06/29 00:11:22;;;;;;;5.20;1.90;;;;;;;17.99;53.56;99491.54;108890;1239;63846;-85
2023/06/29 00:13:48;;;;;;;4.70;1.40;;;;;;;17.96;53.57;99490.28;111362;1233;61556;-81
2023/06/29 00:16:17;;;;;;;4.30;1.40;;;;;;;17.95;53.52;99486.33;108873;1234;63721;-81
2023/06/29 00:18:43;;;;;;;6.10;1.90;;;;;;;17.93;53.61;99485.71;109046;1234;61621;-82
2023/06/29 00:21:10;;;;;;;4.00;1.40;;;;;;;17.90;53.58;99480.61;109035;1234;60443;-83
2023/06/29 00:23:37;;;;;;;3.00;1.40;;;;;;;17.88;53.75;99478.75;109010;1237;60622;-84
2023/06/29 00:26:05;;;;;;;5.50;1.60;;;;;;;17.89;53.76;99476.64;109372;1234;61612;-83
2023/06/29 00:28:32;;;;;;;5.20;1.30;;;;;;;17.94;53.67;99474.83;109787;1234;62726;-83
2023/06/29 00:30:59;;;;;;;2.80;1.00;;;;;;;17.97;53.61;99476.08;109197;1234;60580;-85
2023/06/29 00:33:29;;;;;;;3.90;1.10;;;;;;;18.00;53.51;99476.67;109059;1237;60458;-87
2023/06/29 00:35:56;;;;;;;4.30;1.20;;;;;;;17.99;53.57;99472.70;109140;1234;64842;-83
2023/06/29 00:38:25;;;;;;;3.40;1.30;;;;;;;17.99;53.63;99471.27;109178;1234;61424;-84
2023/06/29 00:40:52;;;;;;;3.50;1.40;;;;;;;17.99;53.61;99466.30;112174;1233;63924;-87
2023/06/29 00:43:20;;;;;;;3.80;1.60;;;;;;;17.96;53.95;99461.78;109103;1234;60430;-82
2023/06/29 00:45:46;;;;;;;4.30;1.60;;;;;;;17.94;54.02;99460.87;108964;1237;60980;-86
2023/06/29 00:48:16;;;;;;;6.60;1.40;;;;;;;17.96;54.07;99459.45;109113;1237;65094;-83
2023/06/29 00:50:43;;;;;;;3.40;1.50;;;;;;;17.96;54.14;99457.61;109249;1234;61638;-84
2023/06/29 00:53:30;;;;;;;5.10;1.30;;;;;;;17.93;54.18;99455.91;109260;1234;63845;-87
2023/06/29 00:56:01;;;;;;;4.00;1.40;;;;;;;17.91;54.23;99462.64;109232;1240;60413;-82
2023/06/29 00:58:28;;;;;;;3.60;1.40;;;;;;;17.87;54.42;99460.52;109489;1233;60402;-89
2023/06/29 01:00:57;;;;;;;3.70;1.20;;;;;;;17.88;54.54;99459.14;109166;1234;63648;-88
2023/06/29 01:03:27;;;;;;;3.80;1.40;;;;;;;17.93;54.49;99459.75;109072;1234;61358;-87
2023/06/29 01:05:56;;;;;;;4.10;1.30;;;;;;;17.96;54.60;99457.11;109548;1235;63748;-83
2023/06/29 01:08:31;;;;;;;4.70;1.30;;;;;;;17.99;54.74;99453.94;109318;1234;60525;-86
2023/06/29 01:11:00;;;;;;;4.10;1.50;;;;;;;17.99;54.78;99451.48;109978;1234;60542;-81
2023/06/29 01:13:30;;;;;;;4.40;1.60;;;;;;;18.01;54.80;99449.41;109667;1237;66418;-93
2023/06/29 01:15:57;;;;;;;3.90;1.60;;;;;;;18.01;55.04;99450.23;109162;1237;60474;-92
2023/06/29 01:18:24;;;;;;;3.80;1.70;;;;;;;18.00;55.33;99451.62;109403;1234;63827;-85
2023/06/29 01:20:52;;;;;;;4.50;1.70;;;;;;;17.98;55.78;99447.83;112148;1235;58015;-87
2023/06/29 01:23:26;;;;;;;4.80;1.80;;;;;;;17.98;56.16;99445.73;111897;1234;58241;-85
2023/06/29 01:25:54;;;;;;;3.80;1.40;;;;;;;17.92;56.38;99445.62;112267;1234;63936;-84
2023/06/29 01:28:24;;;;;;;4.90;1.50;;;;;;;17.94;56.70;99443.38;110636;1234;60499;-81
2023/06/29 01:30:51;;;;;;;4.00;1.50;;;;;;;17.90;57.12;99444.14;110948;1234;63113;-82
2023/06/29 01:33:21;;;;;;;5.50;1.70;;;;;;;17.84;57.71;99447.34;112065;1234;58114;-85
2023/06/29 01:35:49;;;;;;;3.90;1.50;;;;;;;17.79;58.50;99451.30;110112;1237;60277;-82
2023/06/29 01:38:49;;;;;;;4.80;1.50;;;;;;;17.73;58.91;99453.38;109678;1238;64906;-86
2023/06/29 01:41:16;;;;;;;4.40;1.70;;;;;;;17.69;59.41;99452.77;108628;1235;61533;-84
2023/06/29 01:43:43;;;;;;;3.70;1.50;;;;;;;17.63;59.92;99452.83;109775;1237;63960;-85
2023/06/29 01:46:10;;;;;;;3.80;1.50;;;;;;;17.59;60.65;99449.83;108891;1241;60443;-85
2023/06/29 01:48:36;;;;;;;4.00;1.80;;;;;;;17.51;61.19;99449.39;108932;1234;60494;-87
2023/06/29 01:51:04;;;;;;;6.30;1.80;;;;;;;17.42;61.60;99446.23;110064;1235;64759;-86
2023/06/29 01:53:31;;;;;;;4.30;1.60;;;;;;;17.36;62.28;99443.11;109000;1235;61364;-85
2023/06/29 01:56:03;;;;;;;5.00;1.70;;;;;;;17.32;62.70;99442.95;108831;1240;63915;-83
2023/06/29 01:58:31;;;;;;;4.10;1.60;;;;;;;17.26;63.30;99442.56;109099;1234;60554;-86
2023/06/29 02:00:57;;;;;;;3.90;1.60;;;;;;;17.22;63.59;99439.36;109064;1234;60545;-83
2023/06/29 02:03:24;;;;;;;4.50;1.70;;;;;;;17.21;64.00;99437.23;109521;1234;65065;-84
2023/06/29 02:05:52;;;;;;;6.70;2.00;;;;;;;17.21;64.28;99436.23;109019;1238;61524;-90
2023/06/29 02:08:20;;;;;;;5.50;1.80;;;;;;;17.18;64.71;99437.95;108905;1234;63961;-81
2023/06/29 02:10:46;;;;;;;6.30;1.90;;;;;;;17.15;65.12;99434.19;109011;1233;60480;-82
2023/06/29 02:13:56;;;;;;;4.10;1.70;;;;;;;17.16;65.26;99432.48;109258;1233;60438;-88
2023/06/29 02:16:23;;;;;;;6.20;1.90;;;;;;;17.16;65.44;99434.20;108642;1239;65126;-87
2023/06/29 02:18:49;;;;;;;3.70;1.80;;;;;;;17.15;65.78;99433.98;108908;1233;60437;-89
2023/06/29 02:21:16;;;;;;;3.90;1.90;;;;;;;17.07;66.01;99435.02;108991;1237;62950;-85
2023/06/29 02:23:43;;;;;;;3.90;1.40;;;;;;;16.98;66.38;99430.05;109535;1233;60450;-87
2023/06/29 02:26:09;;;;;;;4.60;1.60;;;;;;;16.99;66.57;99430.66;109026;1235;60410;-82
2023/06/29 02:28:38;;;;;;;5.80;1.50;;;;;;;17.00;66.50;99425.29;109277;1238;65129;-86
2023/06/29 02:31:04;;;;;;;4.70;1.40;;;;;;;17.02;66.74;99422.95;109002;1234;61396;-90
2023/06/29 02:33:33;;;;;;;3.80;1.40;;;;;;;17.01;66.84;99423.66;108943;1234;63944;-91
2023/06/29 02:35:59;;;;;;;4.10;1.50;;;;;;;16.99;67.05;99419.01;109173;1234;60595;-79
2023/06/29 02:38:26;;;;;;;3.90;1.70;;;;;;;16.97;67.37;99422.18;108954;1238;60524;-88
2023/06/29 02:40:53;;;;;;;4.60;1.60;;;;;;;16.93;67.34;99421.25;108920;1234;65072;-85
2023/06/29 02:43:21;;;;;;;3.70;1.70;;;;;;;16.94;67.56;99419.62;109784;1234;61100;-82
2023/06/29 02:45:47;;;;;;;4.50;1.40;;;;;;;16.95;67.76;99419.10;108961;1238;273320;-85
2023/06/29 02:49:52;;;;;;;3.30;1.50;;;;;;;16.79;68.74;99420.70;102406;1295;601212;-61
2023/06/29 02:52:21;;;;;;;3.60;1.50;;;;;;;16.98;68.08;99419.02;104717;1270;59402;-61
2023/06/29 02:54:49;;;;;;;3.80;1.70;;;;;;;17.01;68.12;99419.09;104533;1270;59329;-60
2023/06/29 02:57:17;;;;;;;5.80;2.00;;;;;;;17.02;68.03;99420.14;104469;1273;63290;-61
2023/06/29 02:59:45;;;;;;;5.80;1.70;;;;;;;17.05;68.06;99420.69;104555;1271;60114;-62
2023/06/29 03:02:13;;;;;;;3.70;1.70;;;;;;;17.07;68.06;99419.73;104808;1270;190669;-59
2023/06/29 03:04:42;;;;;;;4.50;1.50;;;;;;;17.09;68.15;99417.58;104717;1272;59215;-61
2023/06/29 03:07:09;;;;;;;3.60;1.70;;;;;;;17.11;68.14;99420.20;104777;1264;59413;-60
2023/06/29 03:09:37;;;;;;;4.30;2.00;;;;;;;17.07;68.25;99417.44;104646;1269;63342;-60
2023/06/29 03:12:05;;;;;;;4.40;2.00;;;;;;;17.03;68.54;99414.77;104749;1264;61315;-63
2023/06/29 03:14:32;;;;;;;4.60;1.60;;;;;;;17.01;68.78;99413.77;104857;1264;62592;-61
2023/06/29 03:17:00;;;;;;;4.50;1.80;;;;;;;17.03;68.95;99411.75;104694;1270;59739;-63
2023/06/29 03:19:28;;;;;;;5.50;1.70;;;;;;;17.07;68.94;99410.69;104835;1269;59671;-61
2023/06/29 03:21:56;;;;;;;4.30;2.00;;;;;;;17.10;68.95;99414.52;104682;1263;62985;-61
2023/06/29 03:24:23;;;;;;;5.30;1.80;;;;;;;17.13;68.85;99414.71;104829;1263;61394;-62
2023/06/29 03:26:51;;;;;;;3.80;1.60;;;;;;;17.14;68.85;99413.38;104691;1269;63768;-60
2023/06/29 03:29:20;;;;;;;5.00;1.70;;;;;;;17.17;68.97;99411.84;104855;1268;59666;-55
2023/06/29 03:31:47;;;;;;;4.00;1.70;;;;;;;17.22;69.13;99411.61;104970;1268;59574;-60
2023/06/29 03:34:15;;;;;;;3.90;1.70;;;;;;;17.24;68.94;99409.95;104721;1269;64148;-60
2023/06/29 03:36:42;;;;;;;4.50;1.90;;;;;;;17.24;68.98;99410.94;104733;1264;61326;-59
2023/06/29 03:39:10;;;;;;;4.20;1.70;;;;;;;17.23;69.09;99408.42;104720;1264;63725;-59
2023/06/29 03:41:37;;;;;;;3.80;1.60;;;;;;;17.27;68.99;99410.06;104793;1264;59691;-59
2023/06/29 03:44:04;;;;;;;3.60;1.30;;;;;;;17.32;68.96;99409.51;104998;1264;59805;-59
2023/06/29 03:46:32;;;;;;;4.50;1.70;;;;;;;17.34;69.03;99413.04;104648;1264;64140;-59
2023/06/29 03:48:59;;;;;;;4.50;2.10;;;;;;;17.35;68.88;99413.98;104757;1263;61858;-62
2023/06/29 03:51:27;;;;;;;4.40;1.80;;;;;;;17.38;68.87;99416.17;104832;1269;63712;-57
2023/06/29 03:53:55;;;;;;;4.10;2.10;;;;;;;17.37;68.73;99418.04;104701;1266;59734;-58
2023/06/29 03:56:22;;;;;;;4.10;2.00;;;;;;;17.32;68.83;99415.83;104744;1270;59673;-58
2023/06/29 03:58:50;;;;;;;4.70;1.80;;;;;;;17.29;69.16;99417.40;104833;1264;64280;-61
2023/06/29 04:01:17;;;;;;;5.20;2.20;;;;;;;17.30;69.28;99415.70;104520;1263;60081;-59
2023/06/29 04:03:45;;;;;;;4.30;1.90;;;;;;;17.32;69.29;99417.42;104783;1270;63695;-58
2023/06/29 04:06:12;;;;;;;4.70;1.80;;;;;;;17.36;69.42;99413.05;104762;1269;59744;-59
2023/06/29 04:08:40;;;;;;;3.80;2.00;;;;;;;17.41;69.42;99412.73;104892;1270;59780;-58
2023/06/29 04:11:09;;;;;;;4.40;2.30;;;;;;;17.47;69.41;99411.66;104816;1269;64058;-57
2023/06/29 04:13:39;;;;;;;5.40;2.50;;;;;;;17.51;69.29;99410.92;104988;1264;61383;-59
2023/06/29 04:16:07;;;;;;;4.40;2.20;;;;;;;17.51;69.20;99408.81;105017;1265;64209;-59
2023/06/29 04:18:35;;;;;;;6.70;2.60;;;;;;;17.49;69.23;99409.92;104707;1267;59664;-57
2023/06/29 04:21:03;;;;;;;6.30;2.50;;;;;;;17.50;69.23;99409.45;104910;1270;59904;-56
2023/06/29 04:23:30;;;;;;;6.50;2.70;;;;;;;17.51;69.24;99411.33;104827;1270;64098;-57
2023/06/29 04:26:03;;;;;;;6.60;2.60;;;;;;;17.52;69.27;99411.42;104997;1263;61377;-56
2023/06/29 04:28:34;;;;;;;5.30;2.40;;;;;;;17.55;69.30;99413.58;105104;1265;63778;-59
2023/06/29 04:31:02;;;;;;;5.90;2.40;;;;;;;17.62;69.51;99417.89;104819;1263;59579;-57
2023/06/29 04:33:30;;;;;;;4.60;2.70;;;;;;;17.66;69.39;99417.92;104841;1268;60604;-56
2023/06/29 04:35:58;;;;;;;5.90;2.90;;;;;;;17.70;69.31;99419.06;104801;1263;64106;-57
2023/06/29 04:38:27;;;;;;;5.30;2.90;;;;;;;17.73;69.36;99414.82;104954;1264;61521;-57
2023/06/29 04:41:03;;;;;;;6.20;3.20;;;;;;;17.73;69.51;99419.45;104458;1267;63734;-57
2023/06/29 04:43:31;;;;;;;6.00;3.10;;;;;;;17.72;69.61;99415.27;104842;1266;59788;-58
2023/06/29 04:46:00;;;;;;;4.40;2.50;;;;;;;17.73;69.46;99413.52;104621;1264;60343;-57
2023/06/29 04:48:36;;;;;;;5.10;2.60;;;;;;;17.77;69.59;99411.99;104729;1269;64276;-57
2023/06/29 04:51:05;;;;;;;5.10;2.90;;;;;;;17.82;69.43;99410.43;104871;1270;61567;-59
2023/06/29 04:53:36;;;;;;;6.40;3.10;;;;;;;17.86;69.06;99413.10;104877;1269;62518;-57
2023/06/29 04:56:04;;;;;;;6.40;3.70;;;;;;;17.88;68.86;99412.73;104684;1269;59763;-56
2023/06/29 04:58:31;;;;;;;5.50;3.20;;;;;;;17.90;68.98;99410.61;104809;1263;59687;-56
2023/06/29 05:00:59;;;;;;;5.50;3.40;;;;;;;17.91;69.03;99410.19;104749;1263;64058;-57
2023/06/29 05:03:27;;;;;;;4.90;3.00;;;;;;;17.90;69.13;99410.73;104710;1269;61439;-56
2023/06/29 05:05:55;;;;;;;5.70;3.50;;;;;;;17.90;69.06;99411.99;104517;1266;63723;-57
2023/06/29 05:08:22;;;;;;;6.80;3.50;;;;;;;17.91;68.95;99409.73;104721;1268;59808;-56
2023/06/29 05:10:51;;;;;;;5.70;3.10;;;;;;;17.92;69.02;99412.09;104877;1263;59737;-56
2023/06/29 05:13:18;;;;;;;6.20;3.20;;;;;;;17.92;68.86;99413.15;105052;1261;71783;-57
2023/06/29 05:15:47;;;;;;;5.70;3.40;;;;;;;17.91;68.84;99415.84;104968;1261;61383;-56
2023/06/29 05:18:15;;;;;;;5.40;3.30;;;;;;;17.92;69.09;99415.58;104975;1265;63754;-55
2023/06/29 05:20:43;;;;;;;6.20;3.40;;;;;;;17.94;69.16;99411.56;104942;1264;59723;-55
2023/06/29 05:23:11;;;;;;;5.20;3.00;;;;;;;17.99;69.27;99408.98;104871;1265;59716;-55
2023/06/29 05:25:40;;;;;;;5.70;3.30;;;;;;;18.08;69.30;99410.02;105164;1261;64310;-55
2023/06/29 05:28:08;;;;;;;5.90;3.50;;;;;;;18.16;69.15;99409.94;105050;1261;61520;-55
2023/06/29 05:30:36;;;;;;;6.20;3.90;;;;;;;18.20;69.07;99408.16;105045;1264;62573;-56
2023/06/29 05:33:04;;;;;;;6.20;3.60;;;;;;;18.23;68.92;99407.93;105026;1263;59748;-55
2023/06/29 05:35:34;;;;;;;5.70;3.60;;;;;;;18.24;68.83;99404.63;104809;1265;59696;-59
2023/06/29 05:38:02;;;;;;;6.10;3.60;;;;;;;18.26;68.66;99412.73;104901;1260;63569;-61
2023/06/29 05:40:29;;;;;;;7.40;4.00;;;;;;;18.29;68.50;99408.83;105152;1261;61861;-58
2023/06/29 05:42:57;;;;;;;6.90;3.80;;;;;;;18.32;68.42;99414.38;104946;1263;63770;-59
2023/06/29 05:45:25;;;;;;;5.60;3.60;;;;;;;18.33;68.27;99413.36;105546;1260;60038;-62
2023/06/29 05:47:54;;;;;;;6.40;4.00;;;;;;;18.35;68.11;99416.67;105078;1263;59760;-56
2023/06/29 05:50:22;;;;;;;8.20;4.30;;;;;;;18.35;68.10;99418.52;104989;1261;64187;-60
2023/06/29 05:52:50;;;;;;;8.10;4.70;;;;;;;18.34;68.50;99413.48;104813;1260;61467;-58
2023/06/29 05:55:19;;;;;;;8.60;4.50;;;;;;;18.34;68.60;99414.27;104769;1265;63703;-58
2023/06/29 05:57:47;;;;;;;7.00;4.00;;;;;;;18.37;68.47;99418.17;105173;1263;59747;-57
2023/06/29 06:00:15;;;;;;;7.50;4.10;;;;;;;18.45;68.35;99416.70;104833;1265;60047;-59
2023/06/29 06:02:44;;;;;;;7.10;3.90;;;;;;;18.55;68.17;99419.69;107539;1265;62919;-66
2023/06/29 06:05:11;;;;;;;7.50;4.20;;;;;;;18.63;67.76;99418.45;106006;1260;60097;-61
2023/06/29 06:07:39;;;;;;;6.20;3.40;;;;;;;18.71;67.66;99413.31;106505;1262;62467;-59
2023/06/29 06:10:07;;;;;;;6.10;4.00;;;;;;;18.78;67.19;99411.69;105042;1266;59739;-56
2023/06/29 06:12:35;;;;;;;7.80;4.50;;;;;;;18.81;67.08;99416.47;108600;1263;59116;-63
2023/06/29 06:15:04;;;;;;;12.70;4.40;;;;;;;18.79;67.07;99412.97;108705;1260;62859;-58
2023/06/29 06:17:31;;;;;;;6.10;4.10;;;;;;;18.80;67.02;99421.79;105773;1265;61360;-59
2023/06/29 06:19:59;;;;;;;6.50;3.80;;;;;;;18.82;66.72;99421.27;104591;1262;63864;-61
2023/06/29 06:22:26;;;;;;;7.80;3.90;;;;;;;18.83;66.74;99422.51;104646;1260;59632;-58
2023/06/29 06:24:54;;;;;;;8.00;4.20;;;;;;;18.85;67.04;99424.04;104664;1260;59683;-63
2023/06/29 06:27:22;;;;;;;7.70;4.70;;;;;;;18.89;67.24;99425.90;104998;1261;62915;-60
2023/06/29 06:29:49;;;;;;;7.40;4.20;;;;;;;18.95;66.87;99426.92;104889;1260;61311;-59
2023/06/29 06:32:19;;;;;;;7.50;4.40;;;;;;;18.98;66.87;99424.46;104938;1260;63830;-64
2023/06/29 06:34:50;;;;;;;6.10;4.20;;;;;;;19.01;66.83;99426.39;104963;1260;60025;-62
2023/06/29 06:37:18;;;;;;;5.90;3.80;;;;;;;19.02;66.66;99423.36;105069;1265;59734;-63
2023/06/29 06:39:45;;;;;;;7.00;4.30;;;;;;;19.03;66.60;99422.26;104726;1260;64125;-58
2023/06/29 06:42:13;;;;;;;5.70;3.60;;;;;;;19.05;66.65;99421.73;104901;1261;61525;-58
2023/06/29 06:44:50;;;;;;;6.30;4.50;;;;;;;19.08;66.82;99421.65;104910;1262;63720;-56
2023/06/29 06:47:17;;;;;;;9.70;4.20;;;;;;;19.14;66.87;99424.48;105007;1262;59798;-57
2023/06/29 06:49:46;;;;;;;8.80;4.60;;;;;;;19.16;66.77;99427.01;104932;1264;59974;-58
2023/06/29 06:52:14;;;;;;;9.40;5.10;;;;;;;19.14;66.87;99429.98;108702;1260;64710;-64
2023/06/29 06:54:42;;;;;;;6.20;4.40;;;;;;;19.08;67.53;99426.33;106755;1260;61369;-58
2023/06/29 06:57:09;;;;;;;7.40;5.10;;;;;;;19.02;67.87;99426.56;105242;1263;63683;-58
2023/06/29 06:59:37;;;;;;;6.70;4.40;;;;;;;19.00;68.13;99425.00;105050;1262;60461;-61
2023/06/29 07:02:05;;;;;;;6.90;4.30;;;;;;;19.02;68.40;99422.63;105234;1260;60556;-60
2023/06/29 07:04:33;;;;;;;8.80;4.50;;;;;;;19.08;68.76;99424.52;105068;1260;64866;-56
2023/06/29 07:07:00;;;;;;;8.80;4.40;;;;;;;19.16;68.82;99423.92;104944;1265;62836;-58
2023/06/29 07:09:28;;;;;;;9.50;4.40;;;;;;;19.23;68.87;99422.21;104672;1263;63780;-58
2023/06/29 07:11:55;;;;;;;7.40;4.20;;;;;;;19.32;68.76;99419.23;104923;1260;60582;-58
2023/06/29 07:14:23;;;;;;;12.30;4.00;;;;;;;19.44;68.82;99421.70;105001;1265;60582;-60
2023/06/29 07:16:50;;;;;;;5.80;4.10;;;;;;;19.55;68.29;99423.28;104951;1262;76111;-56
2023/06/29 07:19:18;;;;;;;6.20;4.20;;;;;;;19.60;67.82;99427.14;105034;1263;60508;-60
2023/06/29 07:21:48;;;;;;;7.90;4.30;;;;;;;19.56;67.24;99421.13;104912;1265;62452;-59
2023/06/29 07:24:19;;;;;;;7.20;4.20;;;;;;;19.50;67.17;99423.59;104826;1265;60431;-58
2023/06/29 07:26:47;;;;;;;7.00;4.40;;;;;;;19.47;67.16;99422.17;104954;1260;60575;-58
2023/06/29 07:29:14;;;;;;;7.00;4.10;;;;;;;19.50;67.80;99419.25;104967;1265;65032;-64
2023/06/29 07:31:42;;;;;;;6.70;4.40;;;;;;;19.57;68.00;99421.46;104780;1260;61348;-65
2023/06/29 07:34:10;;;;;;;8.50;4.10;;;;;;;19.65;67.81;99422.86;105014;1265;62489;-62
2023/06/29 07:36:39;;;;;;;8.10;4.70;;;;;;;19.67;67.22;99421.39;104725;1262;60457;-62
2023/06/29 07:39:06;;;;;;;6.60;4.60;;;;;;;19.64;67.11;99425.25;104725;1261;60340;-63
2023/06/29 07:41:34;;;;;;;6.80;4.90;;;;;;;19.64;66.94;99426.73;108684;1260;63673;-69
2023/06/29 07:44:01;;;;;;;6.30;4.40;;;;;;;19.69;67.22;99427.00;108084;1260;61864;-69
2023/06/29 07:46:31;;;;;;;6.20;3.80;;;;;;;19.77;66.77;99434.95;104702;1265;63782;-66
2023/06/29 07:48:59;;;;;;;8.30;4.30;;;;;;;19.89;66.23;99434.01;108783;1259;58603;-60
2023/06/29 07:51:32;;;;;;;6.80;4.10;;;;;;;19.97;66.37;99427.46;106017;1260;60536;-69
2023/06/29 07:54:03;;;;;;;7.00;4.30;;;;;;;20.06;66.26;99430.40;105057;1265;64429;-61
2023/06/29 07:56:32;;;;;;;6.50;4.30;;;;;;;20.13;65.76;99430.35;105016;1265;61830;-63
2023/06/29 07:59:02;;;;;;;9.10;4.30;;;;;;;20.17;64.57;99436.93;105013;1263;63858;-65
2023/06/29 08:01:29;;;;;;;7.60;4.20;;;;;;;20.15;63.92;99439.35;104882;1263;60502;-59
2023/06/29 08:03:57;;;;;;;6.30;3.80;;;;;;;20.11;64.06;99436.80;105088;1264;60468;-60
2023/06/29 08:06:31;;;;;;;6.30;4.00;;;;;;;20.11;64.53;99440.84;105006;1261;64935;-59
2023/06/29 08:09:02;;;;;;;6.30;4.40;;;;;;;20.11;64.95;99442.45;105050;1262;60508;-64
2023/06/29 08:11:30;;;;;;;6.10;3.70;;;;;;;20.14;64.81;99442.02;105103;1262;63707;-58
2023/06/29 08:13:57;;;;;;;6.10;3.60;;;;;;;20.20;64.28;99446.65;104863;1262;60482;-59
2023/06/29 08:16:25;;;;;;;5.80;3.80;;;;;;;20.24;64.02;99445.91;104822;1265;60550;-58
2023/06/29 08:18:52;;;;;;;8.00;3.90;;;;;;;20.23;63.94;99441.98;104854;1260;64931;-56
2023/06/29 08:21:20;;;;;;;5.30;3.10;;;;;;;20.20;63.90;99446.45;105505;1256;61396;-58
2023/06/29 08:23:49;;;;;;;7.60;4.30;;;;;;;20.13;63.59;99449.20;105328;1253;63681;-60
2023/06/29 08:26:17;;;;;;;6.80;3.60;;;;;;;20.06;63.80;99445.74;105415;1253;61200;-59
2023/06/29 08:28:45;;;;;;;5.60;4.00;;;;;;;20.04;63.99;99441.84;105280;1253;60534;-63
2023/06/29 08:31:12;;;;;;;5.30;3.40;;;;;;;20.06;63.76;99442.49;105439;1254;63710;-58
2023/06/29 08:34:05;;;;;;;7.00;4.20;;;;;;;20.14;63.91;99445.40;105443;1253;61327;-58
2023/06/29 08:36:39;;;;;;;5.70;3.70;;;;;;;20.23;63.78;99443.37;105591;1257;63734;-60
2023/06/29 08:39:08;;;;;;;6.00;4.00;;;;;;;20.31;62.85;99446.92;104919;1265;60560;-59
2023/06/29 08:41:36;;;;;;;7.70;4.40;;;;;;;20.36;62.65;99439.17;105379;1254;60521;-61
2023/06/29 08:44:04;;;;;;;12.70;4.00;;;;;;;20.48;62.55;99438.61;105366;1253;65774;-63
2023/06/29 08:46:35;;;;;;;8.80;4.10;;;;;;;20.61;61.95;99436.27;105502;1253;61311;-60
2023/06/29 08:49:04;;;;;;;6.60;4.20;;;;;;;20.70;61.83;99439.60;105358;1253;63865;-60
2023/06/29 08:51:34;;;;;;;6.60;4.70;;;;;;;20.72;62.80;99446.57;105361;1257;60649;-61
2023/06/29 08:54:02;;;;;;;7.00;4.20;;;;;;;20.71;63.70;99438.14;105342;1253;60535;-63
2023/06/29 08:56:30;;;;;;;5.70;3.50;;;;;;;20.72;63.46;99432.71;105529;1254;63787;-57
2023/06/29 08:58:57;;;;;;;8.70;4.10;;;;;;;20.71;63.37;99429.58;105239;1253;61809;-56
2023/06/29 09:01:25;;;;;;;6.90;3.80;;;;;;;20.71;63.61;99433.00;105326;1256;63706;-59
2023/06/29 09:03:53;;;;;;;7.80;4.50;;;;;;;20.68;63.50;99427.66;105431;1253;60562;-59
2023/06/29 09:06:22;;;;;;;7.80;3.70;;;;;;;20.70;63.83;99427.41;105279;1260;60448;-63
2023/06/29 09:08:49;;;;;;;5.40;3.60;;;;;;;20.73;63.62;99427.70;105333;1253;76026;-60
2023/06/29 09:11:17;;;;;;;7.00;3.80;;;;;;;20.78;63.86;99423.27;105350;1253;61382;-67
2023/06/29 09:13:46;;;;;;;6.70;3.50;;;;;;;20.90;62.82;99424.60;105217;1254;66562;-60
2023/06/29 09:16:21;;;;;;;5.60;3.40;;;;;;;21.04;61.94;99416.51;105717;1259;60435;-61
2023/06/29 09:18:50;;;;;;;6.60;3.70;;;;;;;21.14;60.94;99430.56;105699;1253;60515;-65
2023/06/29 09:21:18;;;;;;;6.50;3.90;;;;;;;21.15;60.07;99422.37;105369;1253;66062;-58
2023/06/29 09:23:46;;;;;;;6.80;4.20;;;;;;;21.12;60.79;99420.33;105353;1260;60400;-62
2023/06/29 09:26:17;;;;;;;5.30;3.10;;;;;;;21.11;60.62;99419.71;105294;1256;63871;-57
2023/06/29 09:28:45;;;;;;;5.60;3.50;;;;;;;21.06;59.86;99426.33;105467;1255;60492;-60
2023/06/29 09:31:13;;;;;;;5.20;3.00;;;;;;;20.97;60.03;99429.30;105447;1255;61942;-62
2023/06/29 09:33:41;;;;;;;5.40;3.50;;;;;;;20.94;60.93;99429.60;105515;1252;64830;-59
2023/06/29 09:36:09;;;;;;;6.00;4.10;;;;;;;20.91;61.08;99436.73;105406;1253;60563;-60
2023/06/29 09:38:37;;;;;;;5.80;3.60;;;;;;;20.89;61.13;99436.21;105204;1254;62620;-67
2023/06/29 09:41:05;;;;;;;6.00;3.60;;;;;;;20.81;61.29;99436.90;105847;1254;60552;-64
2023/06/29 09:43:33;;;;;;;7.00;4.00;;;;;;;20.72;61.81;99433.94;105271;1260;60636;-59
2023/06/29 09:46:07;;;;;;;5.40;3.70;;;;;;;20.69;61.83;99434.53;105642;1259;63669;-64
2023/06/29 09:48:45;;;;;;;5.50;3.50;;;;;;;20.72;61.65;99440.31;105522;1259;62034;-62
2023/06/29 09:51:22;;;;;;;5.90;3.40;;;;;;;20.78;61.17;99440.96;105353;1256;63785;-58
2023/06/29 09:53:50;;;;;;;6.00;4.00;;;;;;;20.83;60.79;99441.29;105310;1253;60367;-62
2023/06/29 09:56:17;;;;;;;6.60;3.50;;;;;;;20.83;60.46;99439.94;105440;1253;60736;-62
2023/06/29 09:58:45;;;;;;;5.80;3.90;;;;;;;20.82;60.68;99434.27;105648;1255;64938;-59
2023/06/29 10:01:15;;;;;;;6.20;3.90;;;;;;;20.90;61.30;99431.35;106368;1253;61310;-62
2023/06/29 10:03:44;;;;;;;5.80;3.50;;;;;;;21.10;60.12;99438.44;109065;1253;63732;-64
2023/06/29 10:06:15;;;;;;;6.70;4.10;;;;;;;21.31;58.35;99425.35;108551;1253;58404;-73
2023/06/29 10:08:42;;;;;;;6.70;3.40;;;;;;;21.49;58.11;99418.02;105191;1258;60604;-60
2023/06/29 10:11:10;;;;;;;8.60;4.10;;;;;;;21.64;57.79;99415.56;105184;1253;63655;-60
2023/06/29 10:13:40;;;;;;;8.40;4.30;;;;;;;21.75;56.69;99422.45;105140;1260;61590;-57
2023/06/29 10:16:09;;;;;;;7.10;4.50;;;;;;;21.78;56.33;99413.60;105378;1259;62443;-60
2023/06/29 10:18:40;;;;;;;6.40;3.50;;;;;;;21.81;55.82;99414.14;105415;1253;60512;-66
2023/06/29 10:21:08;;;;;;;6.10;4.10;;;;;;;21.87;56.16;99400.16;105483;1255;61597;-64
2023/06/29 10:23:35;;;;;;;6.00;3.80;;;;;;;22.00;55.67;99409.85;105177;1253;63950;-60
2023/06/29 10:26:03;;;;;;;5.50;3.50;;;;;;;22.12;54.89;99402.91;105276;1257;61498;-59
2023/06/29 10:28:30;;;;;;;5.50;3.60;;;;;;;22.28;54.57;99401.15;105264;1254;63676;-64
2023/06/29 10:30:59;;;;;;;5.90;3.10;;;;;;;22.44;53.61;99400.60;105295;1256;60569;-64
2023/06/29 10:33:27;;;;;;;5.10;2.80;;;;;;;22.47;51.62;99406.35;105698;1255;60404;-70
2023/06/29 10:35:57;;;;;;;6.80;3.20;;;;;;;22.45;52.06;99402.50;105703;1254;64901;-64
2023/06/29 10:38:32;;;;;;;5.10;2.80;;;;;;;22.45;52.59;99398.38;105588;1257;68353;-67
2023/06/29 10:41:00;;;;;;;5.90;3.30;;;;;;;22.48;52.23;99395.66;105618;1256;63867;-65
2023/06/29 10:43:28;;;;;;;4.80;2.90;;;;;;;22.46;51.61;99390.40;105689;1257;60526;-60
2023/06/29 10:45:55;;;;;;;5.40;3.00;;;;;;;22.52;51.77;99390.45;105354;1253;60646;-65
2023/06/29 10:48:23;;;;;;;5.80;3.20;;;;;;;22.58;51.64;99385.17;105402;1255;64933;-59
2023/06/29 10:51:09;;;;;;;6.30;3.40;;;;;;;22.66;51.84;99383.77;105427;1253;61311;-60
2023/06/29 10:53:37;;;;;;;6.90;2.80;;;;;;;22.72;51.90;99388.88;105182;1254;63690;-64
2023/06/29 10:56:04;;;;;;;5.50;3.10;;;;;;;22.71;51.61;99383.90;105278;1256;60550;-70
2023/06/29 10:58:36;;;;;;;6.90;3.40;;;;;;;22.63;52.71;99389.98;105596;1252;60454;-67
2023/06/29 11:01:03;;;;;;;5.20;3.00;;;;;;;22.57;53.67;99392.98;105740;1259;64874;-68
2023/06/29 11:03:31;;;;;;;5.80;2.30;;;;;;;22.53;53.62;99396.50;105304;1259;60572;-60
2023/06/29 11:06:01;;;;;;;5.30;2.80;;;;;;;22.45;53.48;99396.02;105419;1253;62442;-60
2023/06/29 11:08:29;;;;;;;5.20;2.40;;;;;;;22.39;54.48;99395.95;105383;1253;61093;-60
2023/06/29 11:11:11;;;;;;;6.60;3.00;;;;;;;22.38;54.54;99393.10;105273;1253;60568;-64
2023/06/29 11:13:39;;;;;;;4.70;2.60;;;;;;;22.43;54.24;99394.89;105287;1254;64063;-60
2023/06/29 11:16:06;;;;;;;6.20;3.10;;;;;;;22.47;54.11;99393.45;105213;1253;61530;-58
2023/06/29 11:18:34;;;;;;;5.10;3.10;;;;;;;22.47;53.78;99394.18;105344;1256;63731;-67
2023/06/29 11:21:02;;;;;;;5.00;3.20;;;;;;;22.50;53.74;99387.64;105255;1253;60945;-60
2023/06/29 11:23:30;;;;;;;5.30;3.10;;;;;;;22.63;53.27;99388.09;106176;1256;60366;-62
2023/06/29 11:26:01;;;;;;;5.20;3.00;;;;;;;22.76;53.06;99382.80;105388;1259;64960;-59
2023/06/29 11:28:30;;;;;;;6.30;2.50;;;;;;;22.95;52.05;99389.92;105642;1253;69215;-63
2023/06/29 11:30:58;;;;;;;5.60;2.90;;;;;;;23.13;50.50;99382.52;105341;1256;63684;-64
2023/06/29 11:33:25;;;;;;;5.30;2.80;;;;;;;23.32;50.76;99377.39;105336;1254;60595;-64